Flight Track Log - Related Links

Times and Time Zones

All times are in EDT time to prevent confusion due to time zone crossing. See the RPA3242 flight status page for this flight to view local times or setup timezone preferences in your user account.

Time Position Orientation Groundspeed Altitude Reporting Facility
EDT Latitude Longitude Course Direction KTS MPH feet Rate Location/Type
Wed 09:39:00 PM 42.2017 -83.3553 175° South 147 169 1,300  Level Cleveland Center
Wed 09:39:49 PM 42.1642 -83.3508 175° South 202 232 2,700 2,431 Climbing Cleveland Center
Wed 09:40:56 PM 42.0997 -83.3397 173° South 221 254 6,000 2,794 Climbing Cleveland Center
Wed 09:42:00 PM 42.0433 -83.2647 135° Southeast 313 360 8,800 2,516 Climbing Cleveland Center
Wed 09:43:00 PM 42.0831 -83.1628 62° Northeast 321 369 11,200 2,100 Climbing Cleveland Center
Wed 09:44:00 PM 42.1250 -83.0553 62° Northeast 342 394 13,000 1,600 Climbing Cleveland Center
Wed 09:45:00 PM 42.1714 -82.9394 62° Northeast 342 394 14,400 1,900 Climbing Cleveland Center
Wed 09:46:00 PM 42.2175 -82.8206 62° Northeast 347 399 16,800 2,500 Climbing Cleveland Center
Wed 09:47:00 PM 42.2678 -82.7017 60° Northeast 347 399 19,400 2,250 Climbing Cleveland Center
Wed 09:48:00 PM 42.3219 -82.5769 60° Northeast 358 412 21,300 1,850 Climbing Cleveland Center
Wed 09:49:00 PM 42.3742 -82.4439 76° East 373 429 23,100 1,800 Climbing Cleveland Center
Wed 09:50:00 PM 42.3450 -82.3192 108° East 341 392 24,900 1,800 Climbing Cleveland Center
Wed 09:51:00 PM 42.2797 -82.2278 134° Southeast 301 346 26,700 1,450 Climbing Cleveland Center
Wed 09:52:00 PM 42.2264 -82.1533 134° Southeast 322 371 27,800 1,400 Climbing Cleveland Center
Wed 09:53:00 PM 42.1447 -82.0367 133° Southeast 346 398 29,500 1,400 Climbing Cleveland Center
Wed 09:54:00 PM 42.0750 -81.9400 134° Southeast 364 419 30,600 1,050 Climbing Cleveland Center
Wed 09:55:00 PM 42.0031 -81.8378 133° Southeast 364 419 31,600 1,000 Climbing Cleveland Center
Wed 09:56:00 PM 41.9311 -81.7386 134° Southeast 370 426 32,600 700 Climbing Cleveland Center
Wed 09:57:00 PM 41.8572 -81.6314 133° Southeast 377 434 33,000 200 Climbing Cleveland Center
Wed 09:58:00 PM 41.7831 -81.5300 134° Southeast 377 434 33,000  Level Cleveland Center
Wed 09:59:00 PM 41.7169 -81.4400 135° Southeast 382 440 33,000 200 Level Cleveland Center
Wed 10:00:00 PM 41.6447 -81.3417 134° Southeast 382 440 33,400 450 Climbing Cleveland Center
Wed 10:01:00 PM 41.5725 -81.2381 133° Southeast 382 440 33,900 600 Climbing Cleveland Center
Wed 10:02:00 PM 41.4958 -81.1347 135° Southeast 382 440 34,600 550 Climbing Cleveland Center
Wed 10:03:00 PM 41.4108 -81.0206 135° Southeast 382 440 35,000 200 Climbing Cleveland Center
Wed 10:04:00 PM 41.3361 -80.9122 133° Southeast 382 440 35,000  Level Cleveland Center
Wed 10:05:00 PM 41.2594 -80.8069 134° Southeast 382 440 35,000  Level Cleveland Center
Wed 10:06:00 PM 41.1825 -80.7017 134° Southeast 382 440 35,000  Level Cleveland Center
Wed 10:07:00 PM 41.1117 -80.5997 133° Southeast 382 440 35,000  Level Cleveland Center
Wed 10:08:00 PM 41.0364 -80.4978 134° Southeast 377 434 35,000  Level Cleveland Center
Wed 10:09:00 PM 40.9633 -80.3989 134° Southeast 377 434 35,000  Level Cleveland Center
Wed 10:10:00 PM 40.8903 -80.2975 134° Southeast 377 434 35,000  Level Cleveland Center
Wed 10:11:00 PM 40.8169 -80.1964 134° Southeast 383 441 35,000  Level Cleveland Center
Wed 10:12:00 PM 40.7686 -80.0650 116° Southeast 383 441 35,000  Level Cleveland Center
Wed 10:13:00 PM 40.7239 -79.9256 113° Southeast 394 453 35,000  Level Cleveland Center
Wed 10:14:00 PM 40.6753 -79.7919 116° Southeast 399 459 35,000  Level Cleveland Center
Wed 10:15:00 PM 40.6242 -79.6611 117° Southeast 399 459 35,000  Level Cleveland Center
Wed 10:16:00 PM 40.5917 -79.5194 107° East 399 459 35,000  Level Cleveland Center
Wed 10:17:00 PM 40.5756 -79.3694 98° East 404 465 35,000  Level Cleveland Center
Wed 10:18:00 PM 40.5594 -79.2358 99° East 409 471 35,000  Level Cleveland Center
Wed 10:19:00 PM 40.5431 -79.0858 98° East 409 471 35,000  Level Cleveland Center
Wed 10:20:00 PM 40.5264 -78.9386 98° East 409 471 35,000 -5,000 Level Cleveland Center
Wed 10:21:00 PM 40.5097 -78.7889 98° East 409 471 25,000 -1,150 Descending Cleveland Center
Wed 10:22:00 PM 40.4925 -78.6364 98° East 409 471 32,700 2,850 Climbing Cleveland Center
Wed 10:23:00 PM 40.4753 -78.4842 98° East 409 471 30,700 -2,081 Descending Cleveland Center
Wed 10:24:53 PM 40.4392 -78.1864 99° East 439 505 26,700 -1,977 Descending New York Center
Wed 10:25:53 PM 40.4214 -78.0372 99° East 420 483 25,000 -864 Descending New York Center
Wed 10:26:51 PM 40.4053 -77.8936 98° East 406 467 25,000  Level New York Center
Wed 10:27:53 PM 40.3869 -77.7444 99° East 406 467 25,000 -446 Level New York Center
Wed 10:28:52 PM 40.3664 -77.5981 100° East 406 467 24,100 -1,050 Descending New York Center
Wed 10:29:53 PM 40.3453 -77.4542 101° East 406 467 22,900 -1,091 Descending New York Center
Wed 10:30:53 PM 40.3306 -77.3467 100° East 394 453 21,900 -1,169 Descending New York Center
Wed 10:31:51 PM 40.3056 -77.1944 102° East 389 448 20,600 -1,261 Descending New York Center
Wed 10:32:52 PM 40.2856 -77.0619 101° East 379 436 19,400 -1,200 Descending New York Center
Wed 10:33:51 PM 40.2656 -76.9294 101° East 374 430 18,200 -1,200 Descending New York Center
Wed 10:34:52 PM 40.2450 -76.8000 102° East 374 430 17,000 -605 Descending New York Center
Wed 10:35:50 PM 40.2250 -76.6622 101° East 364 419 17,000  Level New York Center
Wed 10:36:52 PM 40.2097 -76.5467 100° East 359 413 17,000  Level New York Center
Wed 10:37:52 PM 40.1872 -76.4064 102° East 359 413 17,000 -814 Level New York Center
Wed 10:38:50 PM 40.1697 -76.2933 101° East 359 413 15,400 -1,664 Descending New York Center
Wed 10:39:51 PM 40.1464 -76.1694 104° East 332 382 13,700 -1,537 Descending New York Center
Wed 10:40:51 PM 40.1319 -76.0731 101° East 306 352 12,300 -1,450 Descending New York Center
Wed 10:41:51 PM 40.1161 -75.9581 100° East 296 341 10,800 -1,377 Descending New York Center
Wed 10:42:53 PM 40.0992 -75.8672 104° East 291 335 9,500 -1,450 Descending New York Center
Wed 10:43:51 PM 40.0831 -75.7575 101° East 286 329 7,900 -1,475 Descending New York Center
Wed 10:44:51 PM 40.0767 -75.6647 95° East 281 323 6,600 -950 Descending New York Center
Wed 10:45:51 PM 40.0725 -75.5586 93° East 276 318 6,000 -298 Descending New York Center
Wed 10:46:52 PM 40.0678 -75.4689 94° East 276 318 6,000  Level New York Center
Wed 10:47:51 PM 40.0633 -75.3708 93° East 257 296 6,000  Level New York Center
Wed 10:48:52 PM 40.0667 -75.2833 87° East 211 243 6,000  Level Philadelphia TRACON
Wed 10:49:52 PM 40.0500 -75.2167 108° East 212 244 6,000  Level Philadelphia TRACON
Wed 10:50:52 PM 40.0000 -75.1833 153° Southeast 191 220 6,000  Level Philadelphia TRACON
Wed 10:51:52 PM 39.9833 -75.1167 108° East 223 257 6,000  Level Philadelphia TRACON
Wed 10:52:52 PM 40.0000 -75.0500 72° East 222 255 6,000 -100 Level Philadelphia TRACON
Wed 10:53:52 PM 40.0167 -74.9667 75° East 214 246 5,800 -650 Descending Philadelphia TRACON
Wed 10:54:52 PM 40.0167 -74.9000 90° East 209 241 4,700 -900 Descending Philadelphia TRACON
Wed 10:55:52 PM 39.9833 -74.8833 159° South 167 192 4,000 -793 Descending Philadelphia TRACON
Wed 10:56:53 PM 39.9500 -74.9333 229° Southwest 155 178 3,100 -496 Descending Philadelphia TRACON
Wed 10:57:53 PM 39.9333 -74.9667 237° Southwest 151 174 3,000 -50 Descending Philadelphia TRACON
Wed 10:58:53 PM 39.9167 -75.0333 252° West 154 177 3,000 -400 Level Philadelphia TRACON
Wed 10:59:53 PM 39.9000 -75.0833 247° West 136 157 2,200 -650 Descending Philadelphia TRACON
Wed 11:00:53 PM 39.9000 -75.1167 270° West 106 122 1,700 -550 Descending Philadelphia TRACON
Wed 11:01:53 PM 39.8833 -75.1500 237° Southwest 116 133 1,100 -600 Descending Philadelphia TRACON

Login

Don't have an account? Register now (free) for customized features, flight alerts, and more!